Portada
METAR-TAF:

METAR-TAF

Aeropuertos :

Aeropuerto de Sant'Angelo Treviso

Treviso, Italia

latitud: 45-39N, longitud: 012-11E, altitud: 18 m

Observación

El informe se hizo hace 24 minutos, a las 12:20 UTC
Viento 12 kt del este
Temperatura 19°C
Humedad 43%
Presión 1026 hPa
Visibilidad 10 km o más
sin nubes por debajo de 1500 m y sin presencia de cumulonimbus.

METAR: LIPH 271220Z 08012KT CAVOK 19/06 Q1026

Hora: 13:44 (12:44 UTC)

Pronóstico

El informe se hizo hace 1 hora y 44 minutos, a las 11:00 UTC
Pronóstico válido del 27 a las 12 UTC al 28 a las 12 UTC
Viento 12 kt del este
Visibilidad 10 km o más
sin nubes por debajo de 1500 m y sin presencia de cumulonimbus.

TAF: LIPH 271100Z 2712/2812 08012KT CAVOK

Observaciones y pronósticos meteorológicos de más de 4000 aeropuertos (mensajes METAR y TAF).

Los puntos amarillos y rojos representan las estaciones disponibles.

Ponga el ratón en el punto deseado para ver el nombre de la estación.

Haga clic para ver las observaciones y los pronósticos meteorológicos.

Para cambiar el mapa : haga clic en los botones verdes con una cruz de color negro para hacer un zoom, en el botón verde con un guión para alejar o en las flechas verdes para mapas adyacentes.


METAR-TAF: